sensor_id;sensor_type;location;lat;lon;timestamp;P1;durP1;ratioP1;P2;durP2;ratioP2
61756;SDS011;57225;61.460;24.060;2023-11-19T00:00:55;1.35;;;0.77;;
61756;SDS011;57225;61.460;24.060;2023-11-19T00:03:40;1.17;;;0.80;;
61756;SDS011;57225;61.460;24.060;2023-11-19T00:06:24;0.82;;;0.57;;
61756;SDS011;57225;61.460;24.060;2023-11-19T00:09:09;1.10;;;0.65;;
61756;SDS011;57225;61.460;24.060;2023-11-19T00:11:53;0.95;;;0.80;;
61756;SDS011;57225;61.460;24.060;2023-11-19T00:14:38;1.13;;;0.70;;
61756;SDS011;57225;61.460;24.060;2023-11-19T00:17:22;0.85;;;0.60;;
61756;SDS011;57225;61.460;24.060;2023-11-19T00:20:07;1.27;;;0.60;;
61756;SDS011;57225;61.460;24.060;2023-11-19T00:22:52;0.75;;;0.60;;
61756;SDS011;57225;61.460;24.060;2023-11-19T00:25:36;1.10;;;0.60;;
61756;SDS011;57225;61.460;24.060;2023-11-19T00:28:22;0.70;;;0.55;;
61756;SDS011;57225;61.460;24.060;2023-11-19T00:31:08;0.55;;;0.40;;
61756;SDS011;57225;61.460;24.060;2023-11-19T00:33:52;0.95;;;0.50;;
61756;SDS011;57225;61.460;24.060;2023-11-19T00:36:36;0.88;;;0.45;;
61756;SDS011;57225;61.460;24.060;2023-11-19T00:39:21;0.90;;;0.63;;
61756;SDS011;57225;61.460;24.060;2023-11-19T00:42:06;1.05;;;0.50;;
61756;SDS011;57225;61.460;24.060;2023-11-19T00:44:51;0.30;;;0.30;;
61756;SDS011;57225;61.460;24.060;2023-11-19T00:47:36;1.27;;;0.47;;
61756;SDS011;57225;61.460;24.060;2023-11-19T00:50:21;0.98;;;0.40;;
61756;SDS011;57225;61.460;24.060;2023-11-19T00:53:06;0.80;;;0.50;;
61756;SDS011;57225;61.460;24.060;2023-11-19T00:55:51;0.63;;;0.45;;
61756;SDS011;57225;61.460;24.060;2023-11-19T00:58:35;1.05;;;0.65;;
61756;SDS011;57225;61.460;24.060;2023-11-19T01:01:20;0.82;;;0.50;;
61756;SDS011;57225;61.460;24.060;2023-11-19T01:04:05;0.60;;;0.50;;
61756;SDS011;57225;61.460;24.060;2023-11-19T01:06:50;1.38;;;0.73;;
61756;SDS011;57225;61.460;24.060;2023-11-19T01:09:34;0.65;;;0.40;;
61756;SDS011;57225;61.460;24.060;2023-11-19T01:12:19;0.73;;;0.60;;
61756;SDS011;57225;61.460;24.060;2023-11-19T01:15:04;1.20;;;0.60;;
61756;SDS011;57225;61.460;24.060;2023-11-19T01:17:49;1.00;;;0.60;;
61756;SDS011;57225;61.460;24.060;2023-11-19T01:20:34;0.70;;;0.60;;
61756;SDS011;57225;61.460;24.060;2023-11-19T01:23:18;0.77;;;0.55;;
61756;SDS011;57225;61.460;24.060;2023-11-19T01:26:03;4.05;;;0.60;;
61756;SDS011;57225;61.460;24.060;2023-11-19T01:28:49;1.00;;;0.60;;
61756;SDS011;57225;61.460;24.060;2023-11-19T01:31:36;0.75;;;0.68;;
61756;SDS011;57225;61.460;24.060;2023-11-19T01:34:21;1.27;;;0.70;;
61756;SDS011;57225;61.460;24.060;2023-11-19T01:40:21;0.93;;;0.50;;
61756;SDS011;57225;61.460;24.060;2023-11-19T01:43:06;1.00;;;0.60;;
61756;SDS011;57225;61.460;24.060;2023-11-19T01:45:50;0.75;;;0.40;;
61756;SDS011;57225;61.460;24.060;2023-11-19T01:48:35;0.55;;;0.32;;
61756;SDS011;57225;61.460;24.060;2023-11-19T01:54:08;0.40;;;0.40;;
61756;SDS011;57225;61.460;24.060;2023-11-19T01:56:53;0.50;;;0.38;;
61756;SDS011;57225;61.460;24.060;2023-11-19T01:59:40;0.50;;;0.40;;
61756;SDS011;57225;61.460;24.060;2023-11-19T02:02:28;1.08;;;0.45;;
61756;SDS011;57225;61.460;24.060;2023-11-19T02:05:13;0.47;;;0.40;;
61756;SDS011;57225;61.460;24.060;2023-11-19T02:07:58;0.70;;;0.35;;
61756;SDS011;57225;61.460;24.060;2023-11-19T02:10:42;0.32;;;0.30;;
61756;SDS011;57225;61.460;24.060;2023-11-19T02:13:27;0.43;;;0.30;;
61756;SDS011;57225;61.460;24.060;2023-11-19T02:16:12;0.22;;;0.20;;
61756;SDS011;57225;61.460;24.060;2023-11-19T02:18:56;1.70;;;0.40;;
61756;SDS011;57225;61.460;24.060;2023-11-19T02:21:41;0.60;;;0.38;;
61756;SDS011;57225;61.460;24.060;2023-11-19T02:24:25;0.57;;;0.30;;
61756;SDS011;57225;61.460;24.060;2023-11-19T02:27:16;0.25;;;0.25;;
61756;SDS011;57225;61.460;24.060;2023-11-19T02:30:13;1.38;;;0.35;;
61756;SDS011;57225;61.460;24.060;2023-11-19T02:32:58;0.70;;;0.43;;
61756;SDS011;57225;61.460;24.060;2023-11-19T02:35:47;0.90;;;0.40;;
61756;SDS011;57225;61.460;24.060;2023-11-19T02:38:32;0.40;;;0.40;;
61756;SDS011;57225;61.460;24.060;2023-11-19T02:41:16;0.63;;;0.40;;
61756;SDS011;57225;61.460;24.060;2023-11-19T02:44:01;0.50;;;0.40;;
61756;SDS011;57225;61.460;24.060;2023-11-19T02:46:45;0.40;;;0.20;;
61756;SDS011;57225;61.460;24.060;2023-11-19T02:49:31;0.75;;;0.50;;
61756;SDS011;57225;61.460;24.060;2023-11-19T02:52:16;0.40;;;0.30;;
61756;SDS011;57225;61.460;24.060;2023-11-19T02:55:00;0.55;;;0.32;;
61756;SDS011;57225;61.460;24.060;2023-11-19T02:57:45;0.70;;;0.40;;
61756;SDS011;57225;61.460;24.060;2023-11-19T03:00:31;0.82;;;0.40;;
61756;SDS011;57225;61.460;24.060;2023-11-19T03:03:20;0.55;;;0.40;;
61756;SDS011;57225;61.460;24.060;2023-11-19T03:06:06;0.73;;;0.40;;
61756;SDS011;57225;61.460;24.060;2023-11-19T03:08:51;0.38;;;0.32;;
61756;SDS011;57225;61.460;24.060;2023-11-19T03:11:36;0.70;;;0.40;;
61756;SDS011;57225;61.460;24.060;2023-11-19T03:14:20;1.83;;;0.50;;
61756;SDS011;57225;61.460;24.060;2023-11-19T03:17:06;0.50;;;0.40;;
61756;SDS011;57225;61.460;24.060;2023-11-19T03:19:51;1.00;;;0.40;;
61756;SDS011;57225;61.460;24.060;2023-11-19T03:22:38;0.68;;;0.47;;
61756;SDS011;57225;61.460;24.060;2023-11-19T03:25:24;0.65;;;0.50;;
61756;SDS011;57225;61.460;24.060;2023-11-19T03:28:10;1.77;;;0.43;;
61756;SDS011;57225;61.460;24.060;2023-11-19T03:30:55;0.70;;;0.40;;
61756;SDS011;57225;61.460;24.060;2023-11-19T03:33:39;0.90;;;0.60;;
61756;SDS011;57225;61.460;24.060;2023-11-19T03:36:24;0.68;;;0.50;;
61756;SDS011;57225;61.460;24.060;2023-11-19T03:39:08;0.70;;;0.50;;
61756;SDS011;57225;61.460;24.060;2023-11-19T03:41:52;1.08;;;0.47;;
61756;SDS011;57225;61.460;24.060;2023-11-19T03:44:37;0.63;;;0.40;;
61756;SDS011;57225;61.460;24.060;2023-11-19T03:47:21;0.88;;;0.47;;
61756;SDS011;57225;61.460;24.060;2023-11-19T03:50:06;1.15;;;0.60;;
61756;SDS011;57225;61.460;24.060;2023-11-19T03:52:52;0.93;;;0.57;;
61756;SDS011;57225;61.460;24.060;2023-11-19T03:55:36;0.55;;;0.43;;
61756;SDS011;57225;61.460;24.060;2023-11-19T03:58:21;0.47;;;0.32;;
61756;SDS011;57225;61.460;24.060;2023-11-19T04:01:05;0.90;;;0.60;;
61756;SDS011;57225;61.460;24.060;2023-11-19T04:06:39;1.58;;;0.47;;
61756;SDS011;57225;61.460;24.060;2023-11-19T04:09:24;1.02;;;0.60;;
61756;SDS011;57225;61.460;24.060;2023-11-19T04:12:08;0.68;;;0.47;;
61756;SDS011;57225;61.460;24.060;2023-11-19T04:14:53;0.60;;;0.30;;
61756;SDS011;57225;61.460;24.060;2023-11-19T04:17:37;0.93;;;0.40;;
61756;SDS011;57225;61.460;24.060;2023-11-19T04:20:22;0.30;;;0.20;;
61756;SDS011;57225;61.460;24.060;2023-11-19T04:23:06;0.85;;;0.35;;
61756;SDS011;57225;61.460;24.060;2023-11-19T04:25:51;0.30;;;0.30;;
61756;SDS011;57225;61.460;24.060;2023-11-19T04:28:35;0.80;;;0.50;;
61756;SDS011;57225;61.460;24.060;2023-11-19T04:31:20;0.30;;;0.30;;
61756;SDS011;57225;61.460;24.060;2023-11-19T04:34:04;0.73;;;0.32;;
61756;SDS011;57225;61.460;24.060;2023-11-19T04:36:49;0.47;;;0.30;;
61756;SDS011;57225;61.460;24.060;2023-11-19T04:39:34;0.35;;;0.30;;
61756;SDS011;57225;61.460;24.060;2023-11-19T04:42:18;0.30;;;0.28;;
61756;SDS011;57225;61.460;24.060;2023-11-19T04:45:03;0.30;;;0.30;;
61756;SDS011;57225;61.460;24.060;2023-11-19T04:47:49;0.25;;;0.25;;
61756;SDS011;57225;61.460;24.060;2023-11-19T04:50:34;0.30;;;0.20;;
61756;SDS011;57225;61.460;24.060;2023-11-19T04:53:18;0.28;;;0.20;;
61756;SDS011;57225;61.460;24.060;2023-11-19T04:56:09;1.10;;;1.00;;
61756;SDS011;57225;61.460;24.060;2023-11-19T04:58:54;0.45;;;0.43;;
61756;SDS011;57225;61.460;24.060;2023-11-19T05:01:39;0.40;;;0.30;;
61756;SDS011;57225;61.460;24.060;2023-11-19T05:04:23;0.38;;;0.30;;
61756;SDS011;57225;61.460;24.060;2023-11-19T05:07:08;0.43;;;0.30;;
61756;SDS011;57225;61.460;24.060;2023-11-19T05:09:52;0.20;;;0.20;;
61756;SDS011;57225;61.460;24.060;2023-11-19T05:12:37;0.25;;;0.22;;
61756;SDS011;57225;61.460;24.060;2023-11-19T05:15:22;0.35;;;0.20;;
61756;SDS011;57225;61.460;24.060;2023-11-19T05:18:07;0.28;;;0.22;;
61756;SDS011;57225;61.460;24.060;2023-11-19T05:20:52;0.63;;;0.28;;
61756;SDS011;57225;61.460;24.060;2023-11-19T05:23:37;0.20;;;0.20;;
61756;SDS011;57225;61.460;24.060;2023-11-19T05:26:23;1.20;;;0.30;;
61756;SDS011;57225;61.460;24.060;2023-11-19T05:29:08;0.50;;;0.30;;
61756;SDS011;57225;61.460;24.060;2023-11-19T05:31:52;0.95;;;0.25;;
61756;SDS011;57225;61.460;24.060;2023-11-19T05:34:39;0.52;;;0.20;;
61756;SDS011;57225;61.460;24.060;2023-11-19T05:37:23;0.45;;;0.28;;
61756;SDS011;57225;61.460;24.060;2023-11-19T05:40:08;1.80;;;0.25;;
61756;SDS011;57225;61.460;24.060;2023-11-19T05:42:58;0.17;;;0.17;;
61756;SDS011;57225;61.460;24.060;2023-11-19T05:45:42;0.30;;;0.30;;
61756;SDS011;57225;61.460;24.060;2023-11-19T05:48:27;0.28;;;0.20;;
61756;SDS011;57225;61.460;24.060;2023-11-19T05:51:12;0.47;;;0.30;;
61756;SDS011;57225;61.460;24.060;2023-11-19T05:53:58;0.45;;;0.30;;
61756;SDS011;57225;61.460;24.060;2023-11-19T05:56:47;0.60;;;0.30;;
61756;SDS011;57225;61.460;24.060;2023-11-19T05:59:33;1.08;;;0.30;;
61756;SDS011;57225;61.460;24.060;2023-11-19T06:02:17;0.43;;;0.30;;
61756;SDS011;57225;61.460;24.060;2023-11-19T06:05:02;0.20;;;0.20;;
61756;SDS011;57225;61.460;24.060;2023-11-19T06:07:48;0.30;;;0.20;;
61756;SDS011;57225;61.460;24.060;2023-11-19T06:10:32;0.20;;;0.20;;
61756;SDS011;57225;61.460;24.060;2023-11-19T06:13:17;0.20;;;0.20;;
61756;SDS011;57225;61.460;24.060;2023-11-19T06:16:01;0.50;;;0.25;;
61756;SDS011;57225;61.460;24.060;2023-11-19T06:18:46;0.30;;;0.30;;
61756;SDS011;57225;61.460;24.060;2023-11-19T06:21:30;1.05;;;0.68;;
61756;SDS011;57225;61.460;24.060;2023-11-19T06:24:15;0.63;;;0.60;;
61756;SDS011;57225;61.460;24.060;2023-11-19T06:26:59;1.85;;;1.00;;
61756;SDS011;57225;61.460;24.060;2023-11-19T06:29:44;0.43;;;0.40;;
61756;SDS011;57225;61.460;24.060;2023-11-19T06:32:28;1.23;;;0.80;;
61756;SDS011;57225;61.460;24.060;2023-11-19T06:35:13;1.50;;;0.95;;
61756;SDS011;57225;61.460;24.060;2023-11-19T06:37:58;1.60;;;0.73;;
61756;SDS011;57225;61.460;24.060;2023-11-19T06:40:43;1.70;;;0.93;;
61756;SDS011;57225;61.460;24.060;2023-11-19T06:43:27;0.70;;;0.43;;
61756;SDS011;57225;61.460;24.060;2023-11-19T06:46:16;1.58;;;0.60;;
61756;SDS011;57225;61.460;24.060;2023-11-19T06:49:00;0.75;;;0.70;;
61756;SDS011;57225;61.460;24.060;2023-11-19T06:51:45;1.45;;;0.95;;
61756;SDS011;57225;61.460;24.060;2023-11-19T06:54:30;1.42;;;0.80;;
61756;SDS011;57225;61.460;24.060;2023-11-19T06:57:15;2.65;;;0.60;;
61756;SDS011;57225;61.460;24.060;2023-11-19T07:00:00;2.45;;;1.13;;
61756;SDS011;57225;61.460;24.060;2023-11-19T07:02:44;1.95;;;1.17;;
61756;SDS011;57225;61.460;24.060;2023-11-19T07:05:29;2.58;;;1.10;;
61756;SDS011;57225;61.460;24.060;2023-11-19T07:08:14;2.17;;;1.30;;
61756;SDS011;57225;61.460;24.060;2023-11-19T07:10:58;1.67;;;1.17;;
61756;SDS011;57225;61.460;24.060;2023-11-19T07:13:43;2.75;;;1.55;;
61756;SDS011;57225;61.460;24.060;2023-11-19T07:16:27;1.92;;;1.20;;
61756;SDS011;57225;61.460;24.060;2023-11-19T07:19:11;1.83;;;1.30;;
61756;SDS011;57225;61.460;24.060;2023-11-19T07:21:56;2.47;;;1.42;;
61756;SDS011;57225;61.460;24.060;2023-11-19T07:24:40;1.30;;;1.10;;
61756;SDS011;57225;61.460;24.060;2023-11-19T07:27:25;1.48;;;0.95;;
61756;SDS011;57225;61.460;24.060;2023-11-19T07:30:09;1.55;;;1.08;;
61756;SDS011;57225;61.460;24.060;2023-11-19T07:32:54;1.60;;;1.15;;
61756;SDS011;57225;61.460;24.060;2023-11-19T07:35:38;1.75;;;1.08;;
61756;SDS011;57225;61.460;24.060;2023-11-19T07:38:25;5.32;;;1.00;;
61756;SDS011;57225;61.460;24.060;2023-11-19T07:41:09;1.38;;;1.00;;
61756;SDS011;57225;61.460;24.060;2023-11-19T07:43:56;2.90;;;1.20;;
61756;SDS011;57225;61.460;24.060;2023-11-19T07:46:41;2.88;;;1.10;;
61756;SDS011;57225;61.460;24.060;2023-11-19T07:49:26;1.40;;;1.10;;
61756;SDS011;57225;61.460;24.060;2023-11-19T07:52:10;1.30;;;1.13;;
61756;SDS011;57225;61.460;24.060;2023-11-19T07:54:55;1.70;;;1.20;;
61756;SDS011;57225;61.460;24.060;2023-11-19T07:57:40;1.50;;;1.20;;
61756;SDS011;57225;61.460;24.060;2023-11-19T08:00:24;1.65;;;1.20;;
61756;SDS011;57225;61.460;24.060;2023-11-19T08:03:09;1.50;;;1.10;;
61756;SDS011;57225;61.460;24.060;2023-11-19T08:05:56;2.50;;;1.45;;
61756;SDS011;57225;61.460;24.060;2023-11-19T08:08:44;2.85;;;1.30;;
61756;SDS011;57225;61.460;24.060;2023-11-19T08:11:28;1.77;;;1.30;;
61756;SDS011;57225;61.460;24.060;2023-11-19T08:14:13;1.90;;;1.40;;
61756;SDS011;57225;61.460;24.060;2023-11-19T08:16:57;2.08;;;1.33;;
61756;SDS011;57225;61.460;24.060;2023-11-19T08:19:42;2.13;;;1.40;;
61756;SDS011;57225;61.460;24.060;2023-11-19T08:22:26;2.15;;;1.52;;
61756;SDS011;57225;61.460;24.060;2023-11-19T08:25:11;2.70;;;1.63;;
61756;SDS011;57225;61.460;24.060;2023-11-19T08:27:55;1.88;;;1.42;;
61756;SDS011;57225;61.460;24.060;2023-11-19T08:30:39;1.60;;;1.13;;
61756;SDS011;57225;61.460;24.060;2023-11-19T08:33:24;2.50;;;1.50;;
61756;SDS011;57225;61.460;24.060;2023-11-19T08:36:08;2.00;;;1.45;;
61756;SDS011;57225;61.460;24.060;2023-11-19T08:38:58;1.65;;;1.27;;
61756;SDS011;57225;61.460;24.060;2023-11-19T08:41:43;1.77;;;1.27;;
61756;SDS011;57225;61.460;24.060;2023-11-19T08:44:33;2.05;;;1.20;;
61756;SDS011;57225;61.460;24.060;2023-11-19T08:47:18;3.15;;;1.75;;
61756;SDS011;57225;61.460;24.060;2023-11-19T08:50:02;2.40;;;1.60;;
61756;SDS011;57225;61.460;24.060;2023-11-19T08:52:47;2.45;;;1.45;;
61756;SDS011;57225;61.460;24.060;2023-11-19T08:55:32;1.98;;;1.60;;
61756;SDS011;57225;61.460;24.060;2023-11-19T08:58:16;1.70;;;1.30;;
61756;SDS011;57225;61.460;24.060;2023-11-19T09:01:01;3.88;;;1.70;;
61756;SDS011;57225;61.460;24.060;2023-11-19T09:03:46;3.10;;;1.60;;
61756;SDS011;57225;61.460;24.060;2023-11-19T09:06:30;2.45;;;1.70;;
61756;SDS011;57225;61.460;24.060;2023-11-19T09:09:14;2.63;;;1.90;;
61756;SDS011;57225;61.460;24.060;2023-11-19T09:11:59;1.95;;;1.63;;
61756;SDS011;57225;61.460;24.060;2023-11-19T09:14:43;3.03;;;1.80;;
61756;SDS011;57225;61.460;24.060;2023-11-19T09:17:29;2.45;;;1.58;;
61756;SDS011;57225;61.460;24.060;2023-11-19T09:20:13;2.83;;;1.70;;
61756;SDS011;57225;61.460;24.060;2023-11-19T09:22:59;2.22;;;1.70;;
61756;SDS011;57225;61.460;24.060;2023-11-19T09:25:43;2.55;;;1.90;;
61756;SDS011;57225;61.460;24.060;2023-11-19T09:28:28;2.35;;;1.80;;
61756;SDS011;57225;61.460;24.060;2023-11-19T09:31:13;2.50;;;1.92;;
61756;SDS011;57225;61.460;24.060;2023-11-19T09:34:01;2.60;;;1.90;;
61756;SDS011;57225;61.460;24.060;2023-11-19T09:36:45;4.78;;;1.90;;
61756;SDS011;57225;61.460;24.060;2023-11-19T09:39:30;2.20;;;1.63;;
61756;SDS011;57225;61.460;24.060;2023-11-19T09:42:14;2.17;;;1.60;;
61756;SDS011;57225;61.460;24.060;2023-11-19T09:44:59;2.50;;;1.80;;
61756;SDS011;57225;61.460;24.060;2023-11-19T09:47:50;2.22;;;1.40;;
61756;SDS011;57225;61.460;24.060;2023-11-19T09:50:36;1.83;;;1.35;;
61756;SDS011;57225;61.460;24.060;2023-11-19T09:53:22;2.30;;;1.60;;
61756;SDS011;57225;61.460;24.060;2023-11-19T09:56:06;2.33;;;1.75;;
61756;SDS011;57225;61.460;24.060;2023-11-19T09:58:54;3.13;;;1.50;;
61756;SDS011;57225;61.460;24.060;2023-11-19T10:01:38;1.90;;;1.35;;
61756;SDS011;57225;61.460;24.060;2023-11-19T10:04:23;2.25;;;1.70;;
61756;SDS011;57225;61.460;24.060;2023-11-19T10:07:10;2.53;;;1.70;;
61756;SDS011;57225;61.460;24.060;2023-11-19T10:09:54;2.33;;;1.75;;
61756;SDS011;57225;61.460;24.060;2023-11-19T10:12:39;2.83;;;2.10;;
61756;SDS011;57225;61.460;24.060;2023-11-19T10:15:24;2.80;;;1.95;;
61756;SDS011;57225;61.460;24.060;2023-11-19T10:18:10;2.53;;;1.70;;
61756;SDS011;57225;61.460;24.060;2023-11-19T10:20:54;2.97;;;1.92;;
61756;SDS011;57225;61.460;24.060;2023-11-19T10:23:49;2.97;;;1.70;;
61756;SDS011;57225;61.460;24.060;2023-11-19T10:26:36;3.40;;;2.08;;
61756;SDS011;57225;61.460;24.060;2023-11-19T10:29:21;5.03;;;2.00;;
61756;SDS011;57225;61.460;24.060;2023-11-19T10:32:07;2.53;;;1.52;;
61756;SDS011;57225;61.460;24.060;2023-11-19T10:34:51;3.05;;;1.95;;
61756;SDS011;57225;61.460;24.060;2023-11-19T10:37:36;2.72;;;1.90;;
61756;SDS011;57225;61.460;24.060;2023-11-19T10:40:21;5.75;;;1.80;;
61756;SDS011;57225;61.460;24.060;2023-11-19T10:43:05;2.60;;;1.77;;
61756;SDS011;57225;61.460;24.060;2023-11-19T10:45:51;3.40;;;1.70;;
61756;SDS011;57225;61.460;24.060;2023-11-19T10:48:36;7.32;;;1.65;;
61756;SDS011;57225;61.460;24.060;2023-11-19T10:51:20;3.30;;;2.25;;
61756;SDS011;57225;61.460;24.060;2023-11-19T10:54:06;3.25;;;1.90;;
61756;SDS011;57225;61.460;24.060;2023-11-19T10:56:52;5.10;;;1.98;;
61756;SDS011;57225;61.460;24.060;2023-11-19T10:59:41;4.25;;;1.80;;
61756;SDS011;57225;61.460;24.060;2023-11-19T11:02:29;2.35;;;1.60;;
61756;SDS011;57225;61.460;24.060;2023-11-19T11:05:19;4.63;;;1.83;;
61756;SDS011;57225;61.460;24.060;2023-11-19T11:08:06;4.20;;;1.75;;
61756;SDS011;57225;61.460;24.060;2023-11-19T11:10:54;3.28;;;1.88;;
61756;SDS011;57225;61.460;24.060;2023-11-19T11:13:40;4.05;;;1.70;;
61756;SDS011;57225;61.460;24.060;2023-11-19T11:16:26;4.47;;;1.80;;
61756;SDS011;57225;61.460;24.060;2023-11-19T11:19:12;3.35;;;2.20;;
61756;SDS011;57225;61.460;24.060;2023-11-19T11:21:56;3.17;;;1.83;;
61756;SDS011;57225;61.460;24.060;2023-11-19T11:40:17;3.03;;;2.17;;
61756;SDS011;57225;61.460;24.060;2023-11-19T11:43:03;4.70;;;2.08;;
61756;SDS011;57225;61.460;24.060;2023-11-19T11:45:48;4.32;;;2.78;;
61756;SDS011;57225;61.460;24.060;2023-11-19T11:48:33;3.90;;;2.15;;
61756;SDS011;57225;61.460;24.060;2023-11-19T11:51:18;3.15;;;2.03;;
61756;SDS011;57225;61.460;24.060;2023-11-19T11:54:28;3.30;;;1.70;;
61756;SDS011;57225;61.460;24.060;2023-11-19T11:57:14;3.72;;;1.90;;
61756;SDS011;57225;61.460;24.060;2023-11-19T12:00:02;2.78;;;1.67;;
61756;SDS011;57225;61.460;24.060;2023-11-19T12:02:48;4.20;;;1.88;;
61756;SDS011;57225;61.460;24.060;2023-11-19T12:05:38;5.43;;;1.90;;
61756;SDS011;57225;61.460;24.060;2023-11-19T12:08:28;4.13;;;1.73;;
61756;SDS011;57225;61.460;24.060;2023-11-19T12:11:13;4.40;;;2.45;;
61756;SDS011;57225;61.460;24.060;2023-11-19T12:14:00;5.88;;;2.15;;
61756;SDS011;57225;61.460;24.060;2023-11-19T12:16:46;2.42;;;1.70;;
61756;SDS011;57225;61.460;24.060;2023-11-19T12:19:30;4.88;;;2.30;;
61756;SDS011;57225;61.460;24.060;2023-11-19T12:22:15;3.25;;;2.00;;
61756;SDS011;57225;61.460;24.060;2023-11-19T12:25:00;4.75;;;2.00;;
61756;SDS011;57225;61.460;24.060;2023-11-19T12:27:47;4.00;;;2.08;;
61756;SDS011;57225;61.460;24.060;2023-11-19T12:33:19;4.13;;;2.50;;
61756;SDS011;57225;61.460;24.060;2023-11-19T12:36:04;4.60;;;2.25;;
61756;SDS011;57225;61.460;24.060;2023-11-19T12:38:49;4.40;;;2.60;;
61756;SDS011;57225;61.460;24.060;2023-11-19T12:41:48;5.60;;;2.55;;
61756;SDS011;57225;61.460;24.060;2023-11-19T12:44:34;5.63;;;2.67;;
61756;SDS011;57225;61.460;24.060;2023-11-19T12:47:18;6.20;;;2.63;;
61756;SDS011;57225;61.460;24.060;2023-11-19T12:50:03;5.13;;;2.78;;
61756;SDS011;57225;61.460;24.060;2023-11-19T12:52:57;4.53;;;2.67;;
61756;SDS011;57225;61.460;24.060;2023-11-19T12:55:41;5.75;;;2.80;;
61756;SDS011;57225;61.460;24.060;2023-11-19T12:58:33;6.63;;;3.05;;
61756;SDS011;57225;61.460;24.060;2023-11-19T13:01:19;5.93;;;2.70;;
61756;SDS011;57225;61.460;24.060;2023-11-19T13:04:17;6.68;;;2.50;;
61756;SDS011;57225;61.460;24.060;2023-11-19T13:07:03;8.43;;;2.28;;
61756;SDS011;57225;61.460;24.060;2023-11-19T13:09:48;6.10;;;2.58;;
61756;SDS011;57225;61.460;24.060;2023-11-19T13:12:32;5.20;;;2.78;;
61756;SDS011;57225;61.460;24.060;2023-11-19T13:15:23;5.45;;;2.53;;
61756;SDS011;57225;61.460;24.060;2023-11-19T13:18:08;4.90;;;2.75;;
61756;SDS011;57225;61.460;24.060;2023-11-19T13:20:53;4.28;;;2.20;;
61756;SDS011;57225;61.460;24.060;2023-11-19T13:23:41;7.80;;;3.10;;
61756;SDS011;57225;61.460;24.060;2023-11-19T13:26:26;5.68;;;2.40;;
61756;SDS011;57225;61.460;24.060;2023-11-19T13:29:10;6.47;;;2.53;;
61756;SDS011;57225;61.460;24.060;2023-11-19T13:31:55;9.25;;;3.10;;
61756;SDS011;57225;61.460;24.060;2023-11-19T13:34:40;5.53;;;2.28;;
61756;SDS011;57225;61.460;24.060;2023-11-19T13:37:27;5.07;;;2.78;;
61756;SDS011;57225;61.460;24.060;2023-11-19T13:40:12;5.85;;;2.63;;
61756;SDS011;57225;61.460;24.060;2023-11-19T13:42:59;3.90;;;2.40;;
61756;SDS011;57225;61.460;24.060;2023-11-19T13:45:44;4.75;;;2.70;;
61756;SDS011;57225;61.460;24.060;2023-11-19T13:48:28;5.47;;;2.90;;
61756;SDS011;57225;61.460;24.060;2023-11-19T13:51:13;4.65;;;2.85;;
61756;SDS011;57225;61.460;24.060;2023-11-19T13:53:57;4.95;;;3.05;;
61756;SDS011;57225;61.460;24.060;2023-11-19T13:56:42;12.05;;;3.42;;
61756;SDS011;57225;61.460;24.060;2023-11-19T13:59:28;8.50;;;2.90;;
61756;SDS011;57225;61.460;24.060;2023-11-19T14:02:13;7.78;;;3.50;;
61756;SDS011;57225;61.460;24.060;2023-11-19T14:04:57;9.35;;;4.00;;
61756;SDS011;57225;61.460;24.060;2023-11-19T14:07:42;5.45;;;3.10;;
61756;SDS011;57225;61.460;24.060;2023-11-19T14:10:27;7.32;;;2.95;;
61756;SDS011;57225;61.460;24.060;2023-11-19T14:13:12;5.10;;;2.95;;
61756;SDS011;57225;61.460;24.060;2023-11-19T14:15:59;7.07;;;2.75;;
61756;SDS011;57225;61.460;24.060;2023-11-19T14:18:43;6.32;;;3.10;;
61756;SDS011;57225;61.460;24.060;2023-11-19T14:21:28;6.55;;;2.83;;
61756;SDS011;57225;61.460;24.060;2023-11-19T14:24:12;5.03;;;2.42;;
61756;SDS011;57225;61.460;24.060;2023-11-19T14:26:57;6.32;;;2.75;;
61756;SDS011;57225;61.460;24.060;2023-11-19T14:29:44;6.75;;;3.10;;
61756;SDS011;57225;61.460;24.060;2023-11-19T14:32:29;5.18;;;2.92;;
61756;SDS011;57225;61.460;24.060;2023-11-19T14:35:13;5.13;;;3.00;;
61756;SDS011;57225;61.460;24.060;2023-11-19T14:37:58;5.72;;;3.20;;
61756;SDS011;57225;61.460;24.060;2023-11-19T14:40:43;8.52;;;3.10;;
61756;SDS011;57225;61.460;24.060;2023-11-19T14:43:28;5.38;;;3.08;;
61756;SDS011;57225;61.460;24.060;2023-11-19T14:46:13;11.95;;;5.70;;
61756;SDS011;57225;61.460;24.060;2023-11-19T14:48:57;13.25;;;5.82;;
61756;SDS011;57225;61.460;24.060;2023-11-19T14:51:42;5.80;;;3.97;;
61756;SDS011;57225;61.460;24.060;2023-11-19T14:54:27;5.68;;;3.28;;
61756;SDS011;57225;61.460;24.060;2023-11-19T14:57:11;6.90;;;3.35;;
61756;SDS011;57225;61.460;24.060;2023-11-19T14:59:56;6.43;;;3.00;;
61756;SDS011;57225;61.460;24.060;2023-11-19T15:02:41;5.80;;;3.55;;
61756;SDS011;57225;61.460;24.060;2023-11-19T15:05:25;6.07;;;3.53;;
61756;SDS011;57225;61.460;24.060;2023-11-19T15:08:12;7.88;;;3.65;;
61756;SDS011;57225;61.460;24.060;2023-11-19T15:10:57;13.48;;;4.78;;
61756;SDS011;57225;61.460;24.060;2023-11-19T15:13:42;6.63;;;3.58;;
61756;SDS011;57225;61.460;24.060;2023-11-19T15:16:26;6.55;;;3.35;;
61756;SDS011;57225;61.460;24.060;2023-11-19T15:19:15;5.28;;;3.42;;
61756;SDS011;57225;61.460;24.060;2023-11-19T15:22:00;9.23;;;4.13;;
61756;SDS011;57225;61.460;24.060;2023-11-19T15:24:48;9.55;;;4.88;;
61756;SDS011;57225;61.460;24.060;2023-11-19T15:27:32;8.40;;;4.90;;
61756;SDS011;57225;61.460;24.060;2023-11-19T15:30:17;10.18;;;6.45;;
61756;SDS011;57225;61.460;24.060;2023-11-19T15:33:02;10.68;;;6.05;;
61756;SDS011;57225;61.460;24.060;2023-11-19T15:35:46;11.38;;;5.30;;
61756;SDS011;57225;61.460;24.060;2023-11-19T15:38:31;5.75;;;3.58;;
61756;SDS011;57225;61.460;24.060;2023-11-19T15:41:16;7.20;;;3.40;;
61756;SDS011;57225;61.460;24.060;2023-11-19T15:44:00;5.95;;;3.50;;
61756;SDS011;57225;61.460;24.060;2023-11-19T15:46:47;7.28;;;3.38;;
61756;SDS011;57225;61.460;24.060;2023-11-19T15:49:32;6.75;;;3.40;;
61756;SDS011;57225;61.460;24.060;2023-11-19T15:52:16;7.25;;;4.10;;
61756;SDS011;57225;61.460;24.060;2023-11-19T15:55:01;6.90;;;3.65;;
61756;SDS011;57225;61.460;24.060;2023-11-19T15:57:45;5.93;;;3.65;;
61756;SDS011;57225;61.460;24.060;2023-11-19T16:00:29;6.63;;;3.88;;
61756;SDS011;57225;61.460;24.060;2023-11-19T16:03:15;7.82;;;3.83;;
61756;SDS011;57225;61.460;24.060;2023-11-19T16:05:59;7.97;;;4.05;;
61756;SDS011;57225;61.460;24.060;2023-11-19T16:08:44;6.85;;;3.95;;
61756;SDS011;57225;61.460;24.060;2023-11-19T16:11:28;7.57;;;4.13;;
61756;SDS011;57225;61.460;24.060;2023-11-19T16:14:13;6.47;;;3.80;;
61756;SDS011;57225;61.460;24.060;2023-11-19T16:16:58;6.00;;;3.30;;
61756;SDS011;57225;61.460;24.060;2023-11-19T16:19:42;7.05;;;4.13;;
61756;SDS011;57225;61.460;24.060;2023-11-19T16:22:28;6.53;;;3.75;;
61756;SDS011;57225;61.460;24.060;2023-11-19T16:25:12;8.35;;;4.00;;
61756;SDS011;57225;61.460;24.060;2023-11-19T16:27:58;7.82;;;4.20;;
61756;SDS011;57225;61.460;24.060;2023-11-19T16:30:43;8.43;;;4.95;;
61756;SDS011;57225;61.460;24.060;2023-11-19T16:33:27;7.30;;;3.92;;
61756;SDS011;57225;61.460;24.060;2023-11-19T16:36:12;8.82;;;4.60;;
61756;SDS011;57225;61.460;24.060;2023-11-19T16:38:59;8.55;;;4.53;;
61756;SDS011;57225;61.460;24.060;2023-11-19T16:41:44;11.30;;;4.43;;
61756;SDS011;57225;61.460;24.060;2023-11-19T16:44:32;9.05;;;4.45;;
61756;SDS011;57225;61.460;24.060;2023-11-19T16:47:16;9.05;;;4.53;;